Time;durP1;ratioP1;P1;durP2;ratioP2;P2;SDS_P1;SDS_P2;PMS_P1;PMS_P2;Temp;Humidity;BMP_temperature;BMP_pressure;BME280_temperature;BME280_humidity;BME280_pressure;Samples;Min_cycle;Max_cycle;Signal;HPM_P1;HPM_P2
2022/10/28 00:01:08;;;;;;;19.05;7.00;;;;;;;16.32;100.00;101652.91;6095335;23;20022;-52
2022/10/28 00:03:39;;;;;;;;;;;;;;;16.33;100.00;101653.72;6097277;23;20025;-51
2022/10/28 00:06:12;;;;;;;14.27;6.43;;;;;;;16.30;100.00;101648.81;6096581;23;19917;-50
2022/10/28 00:08:40;;;;;;;14.93;6.70;;;;;;;16.30;100.00;101646.06;6097116;23;20077;-49
2022/10/28 00:11:11;;;;;;;15.02;6.95;;;;;;;16.30;100.00;101651.56;6095629;23;20324;-52
2022/10/28 00:13:39;;;;;;;20.65;7.55;;;;;;;16.29;100.00;101656.25;6097166;23;20548;-51
2022/10/28 00:16:15;;;;;;;18.20;7.28;;;;;;;16.28;100.00;101648.25;6095035;23;20085;-52
2022/10/28 00:18:44;;;;;;;16.77;6.90;;;;;;;16.27;100.00;101649.38;6097060;23;20018;-52
2022/10/28 00:21:17;;;;;;;17.15;7.63;;;;;;;16.25;100.00;101651.59;6097058;23;20029;-51
2022/10/28 00:23:45;;;;;;;12.52;6.82;;;;;;;16.25;100.00;101651.59;6097167;23;20030;-52
2022/10/28 00:26:14;;;;;;;14.82;7.03;;;;;;;16.26;100.00;101647.72;6095282;23;20022;-51
2022/10/28 00:28:44;;;;;;;15.98;6.45;;;;;;;16.25;100.00;101648.84;6096378;23;20078;-54
2022/10/28 00:31:13;;;;;;;13.15;7.00;;;;;;;16.25;100.00;101646.09;6097846;23;20037;-53
2022/10/28 00:33:41;;;;;;;16.33;6.70;;;;;;;16.24;100.00;101639.78;6097533;23;20014;-51
2022/10/28 00:36:10;;;;;;;16.75;7.30;;;;;;;16.23;100.00;101645.56;6092724;23;20026;-51
2022/10/28 00:38:38;;;;;;;14.27;6.97;;;;;;;16.21;100.00;101643.09;6095216;23;20081;-50
2022/10/28 00:41:07;;;;;;;14.93;6.47;;;;;;;16.22;100.00;101646.66;6096770;23;20022;-56
2022/10/28 00:43:37;;;;;;;14.85;6.65;;;;;;;16.23;100.00;101648.31;6096135;23;20054;-51
2022/10/28 00:46:17;;;;;;;20.63;7.07;;;;;;;16.21;100.00;101645.00;6095859;23;20034;-49
2022/10/28 00:48:48;;;;;;;18.90;7.50;;;;;;;16.15;100.00;101647.81;6095187;23;20031;-48
2022/10/28 00:51:16;;;;;;;17.77;6.63;;;;;;;16.11;100.00;101632.97;6095436;23;20018;-50
2022/10/28 00:53:47;;;;;;;25.17;7.40;;;;;;;16.08;100.00;101636.31;6096246;23;20030;-50
2022/10/28 00:56:15;;;;;;;18.65;7.30;;;;;;;16.10;100.00;101627.78;6095790;23;20140;-50
2022/10/28 00:58:45;;;;;;;14.77;6.30;;;;;;;16.11;100.00;101632.97;6096430;23;20455;-51
2022/10/28 01:01:13;;;;;;;19.63;7.32;;;;;;;16.09;100.00;101629.72;6094790;23;20502;-52
2022/10/28 01:03:40;;;;;;;17.27;6.60;;;;;;;16.07;100.00;101623.69;6096918;23;20026;-50
2022/10/28 01:06:08;;;;;;;16.98;6.88;;;;;;;16.05;100.00;101614.88;6096604;23;20038;-51
2022/10/28 01:08:35;;;;;;;20.75;7.88;;;;;;;16.05;100.00;101616.81;6046897;23;20451;-50
2022/10/28 01:11:34;;;;;;;19.80;6.75;;;;;;;16.02;100.00;101615.47;6096185;23;20328;-51
2022/10/28 01:14:11;;;;;;;17.42;6.93;;;;;;;16.02;100.00;101609.97;6095332;23;20042;-50
2022/10/28 01:17:08;;;;;;;16.80;6.45;;;;;;;16.00;100.00;101598.44;6095607;23;20449;-50
2022/10/28 01:20:13;;;;;;;17.00;6.97;;;;;;;15.95;100.00;101588.28;6095422;23;20018;-50
2022/10/28 01:22:59;;;;;;;15.73;6.80;;;;;;;15.94;100.00;101592.13;6096324;23;20022;-49
2022/10/28 01:26:00;;;;;;;15.48;6.53;;;;;;;15.92;100.00;101582.53;6096559;23;20019;-52
2022/10/28 01:28:34;;;;;;;16.00;6.18;;;;;;;15.87;100.00;101585.31;6096841;23;20023;-50
2022/10/28 01:31:13;;;;;;;16.55;6.75;;;;;;;15.83;100.00;101592.50;6094829;23;20058;-49
2022/10/28 01:33:50;;;;;;;17.58;6.57;;;;;;;15.81;100.00;101591.97;6096628;23;20395;-52
2022/10/28 01:36:25;;;;;;;15.00;6.20;;;;;;;15.83;100.00;101587.00;6096656;23;20458;-52
2022/10/28 01:39:32;;;;;;;18.13;6.10;;;;;;;15.84;100.00;101586.72;6097027;23;20073;-53
2022/10/28 01:42:29;;;;;;;14.25;6.55;;;;;;;15.84;100.00;101591.41;6007290;23;20020;-51
2022/10/28 01:45:32;;;;;;;22.38;6.43;;;;;;;15.84;100.00;101596.88;6095084;23;20070;-50
2022/10/28 01:48:14;;;;;;;15.07;6.13;;;;;;;15.83;100.00;101589.75;6007896;23;20490;-49
2022/10/28 01:50:53;;;;;;;15.93;6.47;;;;;;;15.81;100.00;101581.78;6084388;23;20081;-53
2022/10/28 01:53:26;;;;;;;13.93;6.30;;;;;;;15.79;100.00;101578.50;6096551;23;20026;-50
2022/10/28 01:55:56;;;;;;;17.30;6.90;;;;;;;15.81;100.00;101586.47;6097803;23;20026;-51
2022/10/28 01:58:27;;;;;;;10.60;5.70;;;;;;;15.81;100.00;101587.28;6072623;23;20332;-52
2022/10/28 02:00:56;;;;;;;15.07;6.68;;;;;;;15.81;100.00;101580.97;6072986;23;20399;-48
2022/10/28 02:03:26;;;;;;;15.55;6.18;;;;;;;15.79;100.00;101583.19;6096038;23;20053;-51
2022/10/28 02:05:56;;;;;;;18.65;6.05;;;;;;;15.76;100.00;101585.38;6098255;23;20077;-52
2022/10/28 02:08:54;;;;;;;17.08;6.28;;;;;;;15.75;100.00;101582.91;6097252;23;20421;-50
2022/10/28 02:11:40;;;;;;;14.85;6.30;;;;;;;15.74;100.00;101582.09;6098454;23;20030;-49
2022/10/28 02:14:38;;;;;;;12.63;6.32;;;;;;;15.71;100.00;101579.94;6098495;23;20023;-50
2022/10/28 02:17:25;;;;;;;17.48;5.82;;;;;;;15.69;100.00;101582.09;6099350;23;20030;-51
2022/10/28 02:20:07;;;;;;;14.68;6.40;;;;;;;15.71;100.00;101582.69;6096428;23;20014;-50
2022/10/28 02:22:51;;;;;;;15.02;6.13;;;;;;;15.69;100.00;101584.84;6097475;23;20023;-50
2022/10/28 02:25:25;;;;;;;16.98;6.35;;;;;;;15.67;100.00;101581.56;6097857;23;20014;-52
2022/10/28 02:27:55;;;;;;;16.73;6.47;;;;;;;15.66;100.00;101579.94;6097105;23;20439;-54
2022/10/28 02:30:27;;;;;;;14.85;6.07;;;;;;;15.64;100.00;101575.84;6097884;23;20022;-51
2022/10/28 02:33:04;;;;;;;18.05;5.88;;;;;;;15.66;100.00;101579.13;6096376;23;20018;-50
2022/10/28 02:36:00;;;;;;;;;;;;;;;15.66;100.00;101579.94;6097342;23;20077;-51
2022/10/28 02:38:34;;;;;;;15.25;6.20;;;;;;;15.63;100.00;101583.22;6091461;23;20219;-52
2022/10/28 02:41:19;;;;;;;18.10;5.93;;;;;;;15.61;100.00;101579.97;6096284;23;20023;-51
2022/10/28 02:43:49;;;;;;;12.38;6.18;;;;;;;15.61;100.00;101568.13;6096015;23;20447;-51
2022/10/28 02:46:18;;;;;;;15.75;6.82;;;;;;;15.56;100.00;101571.72;6096708;23;20396;-49
2022/10/28 02:48:50;;;;;;;16.52;7.05;;;;;;;15.54;100.00;101568.47;6096605;23;20019;-51
2022/10/28 02:51:24;;;;;;;13.80;6.43;;;;;;;15.53;100.00;101567.63;6096514;23;20022;-50
2022/10/28 02:54:08;;;;;;;17.73;6.45;;;;;;;15.53;100.00;101572.31;6098232;23;20032;-52
2022/10/28 02:56:39;;;;;;;13.88;6.22;;;;;;;15.50;100.00;101576.44;6096388;23;20446;-50
2022/10/28 02:59:11;;;;;;;18.30;6.57;;;;;;;15.47;100.00;101570.69;6073104;23;20018;-51
2022/10/28 03:01:39;;;;;;;17.33;6.15;;;;;;;15.44;100.00;101565.75;6097640;23;20022;-51
2022/10/28 03:04:07;;;;;;;16.65;6.90;;;;;;;15.42;100.00;101563.31;6097315;23;20022;-51
2022/10/28 03:06:34;;;;;;;20.15;6.78;;;;;;;15.42;100.00;101565.25;6096154;23;20395;-54
2022/10/28 03:09:02;;;;;;;15.20;6.18;;;;;;;15.43;100.00;101566.88;6098534;23;20058;-54
2022/10/28 03:11:29;;;;;;;18.02;6.18;;;;;;;15.46;100.00;101569.03;6098274;23;20018;-51
2022/10/28 03:13:57;;;;;;;17.05;6.43;;;;;;;15.46;100.00;101558.88;6097872;23;20018;-50
2022/10/28 03:16:25;;;;;;;11.23;5.38;;;;;;;15.42;100.00;101559.75;6097548;23;20455;-52
2022/10/28 03:18:54;;;;;;;15.48;6.25;;;;;;;15.37;100.00;101562.50;6097644;23;20018;-50
2022/10/28 03:21:21;;;;;;;15.38;6.30;;;;;;;15.34;100.00;101567.47;6097167;23;20109;-51
2022/10/28 03:23:49;;;;;;;17.85;6.57;;;;;;;15.32;100.00;101568.81;6097972;23;20026;-54
2022/10/28 03:26:16;;;;;;;19.30;6.13;;;;;;;15.32;100.00;101561.44;6097654;23;20078;-52
2022/10/28 03:28:44;;;;;;;15.95;6.20;;;;;;;15.28;100.00;101562.28;6097670;23;20082;-51
2022/10/28 03:31:13;;;;;;;15.55;6.30;;;;;;;15.22;100.00;101553.22;6096302;23;20018;-51
2022/10/28 03:33:41;;;;;;;14.10;6.13;;;;;;;15.22;100.00;101552.41;6097725;23;20086;-50
2022/10/28 03:36:09;;;;;;;20.42;6.82;;;;;;;15.25;100.00;101558.16;6097393;23;20085;-51
2022/10/28 03:38:36;;;;;;;17.00;6.13;;;;;;;15.24;100.00;101552.94;6097377;23;20451;-53
2022/10/28 03:41:04;;;;;;;16.88;6.35;;;;;;;15.21;100.00;101561.75;6097426;23;20029;-50
2022/10/28 03:43:31;;;;;;;24.40;6.55;;;;;;;15.20;100.00;101560.94;6096965;23;20391;-53
2022/10/28 03:45:59;;;;;;;15.77;6.00;;;;;;;15.23;100.00;101557.63;6097279;23;20667;-51
2022/10/28 03:48:26;;;;;;;14.77;6.00;;;;;;;15.23;100.00;101565.88;6097600;23;20023;-52
2022/10/28 03:50:54;;;;;;;17.05;5.93;;;;;;;15.23;100.00;101565.88;6097505;23;20027;-54
2022/10/28 03:53:22;;;;;;;18.50;6.35;;;;;;;15.22;100.00;101550.47;6096885;23;20042;-52
2022/10/28 03:55:57;;;;;;;21.95;7.00;;;;;;;15.19;100.00;101559.28;6097452;23;20034;-52
2022/10/28 03:58:25;;;;;;;21.60;6.75;;;;;;;15.18;100.00;101563.16;6097192;23;20026;-52
2022/10/28 04:00:53;;;;;;;16.20;6.30;;;;;;;15.17;100.00;101556.00;6072037;23;20022;-50
2022/10/28 04:03:22;;;;;;;21.13;6.40;;;;;;;15.22;100.00;101553.22;6046971;23;20022;-51
2022/10/28 04:05:50;;;;;;;19.83;6.80;;;;;;;15.27;100.00;101555.97;6094745;23;20018;-52
2022/10/28 04:08:18;;;;;;;16.65;6.55;;;;;;;15.31;100.00;101545.22;6096139;23;20058;-53
2022/10/28 04:10:46;;;;;;;16.00;6.57;;;;;;;15.34;100.00;101542.75;6096060;23;20618;-53
2022/10/28 04:13:17;;;;;;;21.73;7.00;;;;;;;15.37;100.00;101548.75;6096106;23;20014;-54
2022/10/28 04:15:45;;;;;;;20.30;7.07;;;;;;;15.39;100.00;101552.06;6096088;23;20030;-50
2022/10/28 04:18:12;;;;;;;16.13;6.57;;;;;;;15.40;100.00;101553.72;6095770;23;20018;-54
2022/10/28 04:20:40;;;;;;;19.40;7.25;;;;;;;15.42;100.00;101557.00;6095422;23;20014;-54
2022/10/28 04:23:09;;;;;;;20.58;7.65;;;;;;;15.43;100.00;101553.13;6096005;23;20081;-51
2022/10/28 04:25:37;;;;;;;20.90;7.70;;;;;;;15.42;100.00;101557.81;6093789;23;20451;-53
2022/10/28 04:28:04;;;;;;;28.30;7.88;;;;;;;15.38;100.00;101556.72;6095183;23;20113;-52
2022/10/28 04:30:32;;;;;;;18.10;7.22;;;;;;;15.36;100.00;101552.63;6095502;23;20026;-51
2022/10/28 04:32:59;;;;;;;21.33;7.35;;;;;;;15.34;100.00;101566.63;6095641;23;20018;-51
2022/10/28 04:35:27;;;;;;;20.85;7.68;;;;;;;15.33;100.00;101565.81;6094693;23;20033;-50
2022/10/28 04:37:54;;;;;;;17.50;7.25;;;;;;;15.36;100.00;101569.09;6094847;23;20045;-51
2022/10/28 04:40:22;;;;;;;18.92;7.75;;;;;;;15.36;100.00;101558.13;6096176;23;20049;-53
2022/10/28 04:42:50;;;;;;;31.33;9.23;;;;;;;15.37;100.00;101560.59;6096852;23;20510;-55
2022/10/28 04:45:18;;;;;;;22.77;7.47;;;;;;;15.39;100.00;101557.53;6095891;23;20066;-53
2022/10/28 04:47:45;;;;;;;19.77;7.97;;;;;;;15.39;100.00;101552.88;6095244;23;20014;-52
2022/10/28 04:50:13;;;;;;;22.50;7.40;;;;;;;15.41;100.00;101549.84;6096773;23;20023;-53
2022/10/28 04:52:40;;;;;;;20.10;7.32;;;;;;;15.41;100.00;101552.59;6096608;23;20022;-55
2022/10/28 04:55:08;;;;;;;22.10;7.57;;;;;;;15.41;100.00;101555.34;6096766;23;20014;-51
2022/10/28 04:57:36;;;;;;;19.13;7.82;;;;;;;15.42;100.00;101557.00;6095903;23;20077;-51
2022/10/28 05:00:04;;;;;;;20.40;7.28;;;;;;;15.41;100.00;101553.41;6094737;23;20022;-55
2022/10/28 05:02:32;;;;;;;19.83;7.30;;;;;;;15.41;100.00;101564.41;6095163;23;20014;-54
2022/10/28 05:05:02;;;;;;;22.23;7.85;;;;;;;15.42;100.00;101554.25;6095310;23;20093;-54
2022/10/28 05:07:30;;;;;;;23.50;7.50;;;;;;;15.42;100.00;101560.56;6096035;23;20022;-53
2022/10/28 05:09:57;;;;;;;29.23;7.22;;;;;;;15.41;100.00;101560.84;6047756;23;20078;-50
2022/10/28 05:12:25;;;;;;;21.90;6.68;;;;;;;15.39;100.00;101560.28;6096324;23;20022;-51
2022/10/28 05:14:52;;;;;;;20.65;7.68;;;;;;;15.39;100.00;101557.53;6096737;23;20026;-50
2022/10/28 05:17:20;;;;;;;17.65;7.30;;;;;;;15.40;100.00;101548.22;6095912;23;20094;-53
2022/10/28 05:19:48;;;;;;;19.42;6.75;;;;;;;15.39;100.00;101549.31;6096290;23;20538;-49
2022/10/28 05:22:15;;;;;;;25.77;7.30;;;;;;;15.37;100.00;101548.75;6095673;23;20026;-51
2022/10/28 05:24:43;;;;;;;21.83;7.30;;;;;;;15.33;100.00;101554.81;6095210;23;20029;-49
2022/10/28 05:27:11;;;;;;;20.25;7.28;;;;;;;15.33;100.00;101548.53;6095877;23;20443;-50
2022/10/28 05:29:39;;;;;;;19.58;6.72;;;;;;;15.32;100.00;101553.19;6094865;23;20073;-50
2022/10/28 05:32:06;;;;;;;16.02;6.22;;;;;;;15.32;100.00;101549.59;6098378;23;20073;-49
2022/10/28 05:34:35;;;;;;;21.83;6.80;;;;;;;15.31;100.00;101543.31;6096599;23;20459;-50
2022/10/28 05:37:02;;;;;;;16.83;6.85;;;;;;;15.30;100.00;101541.66;6098364;23;20070;-52
2022/10/28 05:39:30;;;;;;;19.95;6.68;;;;;;;15.32;100.00;101541.38;6098297;23;20023;-49
2022/10/28 05:41:58;;;;;;;20.60;7.15;;;;;;;15.32;100.00;101539.47;6097106;23;20443;-50
2022/10/28 05:44:25;;;;;;;22.15;7.32;;;;;;;15.32;100.00;101530.38;6098219;23;20083;-50
2022/10/28 05:46:54;;;;;;;19.95;6.97;;;;;;;15.32;100.00;101533.97;6095828;23;20018;-50
2022/10/28 05:49:21;;;;;;;17.58;6.93;;;;;;;15.33;100.00;101540.28;6093609;23;20618;-49
2022/10/28 05:51:49;;;;;;;20.15;6.93;;;;;;;15.32;100.00;101527.63;6094272;23;20077;-51
2022/10/28 05:54:16;;;;;;;17.92;6.57;;;;;;;15.32;100.00;101542.22;6093766;23;20029;-50
2022/10/28 05:56:44;;;;;;;19.42;6.40;;;;;;;15.31;100.00;101534.25;6094921;23;20034;-51
2022/10/28 05:59:11;;;;;;;17.35;6.43;;;;;;;15.31;100.00;101539.75;6094158;23;20029;-50
2022/10/28 06:01:39;;;;;;;19.92;6.95;;;;;;;15.28;100.00;101549.38;6093077;23;20367;-49
2022/10/28 06:04:07;;;;;;;23.52;7.22;;;;;;;15.27;100.00;101542.25;6094737;23;20033;-50
2022/10/28 06:06:34;;;;;;;20.48;6.43;;;;;;;15.27;100.00;101545.00;6094540;23;20015;-51
2022/10/28 06:09:02;;;;;;;22.63;6.75;;;;;;;15.26;100.00;101548.81;6094443;23;20022;-50
2022/10/28 06:11:29;;;;;;;23.17;6.93;;;;;;;15.26;100.00;101537.84;6092523;23;20086;-50
2022/10/28 06:13:57;;;;;;;21.38;5.95;;;;;;;15.26;100.00;101546.06;6092976;23;20019;-50
2022/10/28 06:16:24;;;;;;;21.05;7.07;;;;;;;15.26;100.00;101546.06;6093579;23;20070;-50
2022/10/28 06:18:52;;;;;;;16.25;5.88;;;;;;;15.27;100.00;101544.16;6094141;23;20022;-51
2022/10/28 06:21:20;;;;;;;21.08;7.18;;;;;;;15.27;100.00;101538.66;6094243;23;20026;-49
2022/10/28 06:23:47;;;;;;;19.30;6.82;;;;;;;15.26;100.00;101545.25;6093820;23;20404;-48
2022/10/28 06:26:15;;;;;;;17.38;6.40;;;;;;;15.23;100.00;101552.13;6092418;23;20479;-49
2022/10/28 06:28:45;;;;;;;23.90;6.45;;;;;;;15.22;100.00;101552.41;6093816;23;20447;-49
2022/10/28 06:31:12;;;;;;;18.60;5.97;;;;;;;15.21;100.00;101559.00;6094516;23;20030;-50
2022/10/28 06:33:40;;;;;;;24.35;7.07;;;;;;;15.21;100.00;101556.28;6094521;23;20080;-51
2022/10/28 06:36:08;;;;;;;18.42;6.72;;;;;;;15.20;100.00;101566.44;6093592;23;20321;-49
2022/10/28 06:38:36;;;;;;;19.90;7.43;;;;;;;15.18;100.00;101563.16;6094242;23;20030;-49
2022/10/28 06:41:03;;;;;;;18.42;6.03;;;;;;;15.15;100.00;101555.44;6092162;23;20455;-49
2022/10/28 06:43:31;;;;;;;18.95;6.43;;;;;;;15.14;100.00;101556.56;6094280;23;20356;-49
2022/10/28 06:46:05;;;;;;;23.83;6.45;;;;;;;15.16;100.00;101554.38;6092989;23;20570;-47
2022/10/28 06:48:33;;;;;;;22.58;6.53;;;;;;;15.18;100.00;101554.91;6092467;23;20124;-50
2022/10/28 06:51:00;;;;;;;18.10;6.75;;;;;;;15.19;100.00;101558.47;6093185;23;20030;-51
2022/10/28 06:53:28;;;;;;;15.75;6.63;;;;;;;15.19;100.00;101558.47;6094151;23;20022;-51
2022/10/28 06:55:57;;;;;;;24.10;6.55;;;;;;;15.20;100.00;101560.09;6093201;23;20085;-46
2022/10/28 06:58:25;;;;;;;22.40;6.57;;;;;;;15.21;100.00;101556.28;6092773;23;20430;-47
2022/10/28 07:00:52;;;;;;;19.80;6.80;;;;;;;15.21;100.00;101551.59;6094901;23;20018;-50
2022/10/28 07:03:21;;;;;;;19.60;6.40;;;;;;;15.23;100.00;101549.38;6094586;23;20022;-48
2022/10/28 07:05:50;;;;;;;15.63;5.18;;;;;;;15.25;100.00;101544.44;6092211;23;20431;-48
2022/10/28 07:08:18;;;;;;;21.00;6.25;;;;;;;15.27;100.00;101555.13;6093985;23;20022;-48
2022/10/28 07:10:54;;;;;;;16.60;5.93;;;;;;;15.29;100.00;101556.47;6093938;23;20030;-49
2022/10/28 07:13:22;;;;;;;19.05;6.70;;;;;;;15.31;100.00;101562.53;6095380;23;20022;-52
2022/10/28 07:15:53;;;;;;;16.67;6.20;;;;;;;15.32;100.00;101544.97;6097298;23;20070;-50
2022/10/28 07:18:21;;;;;;;16.10;5.97;;;;;;;15.33;100.00;101554.81;6098210;23;20022;-53
2022/10/28 07:20:49;;;;;;;17.42;6.20;;;;;;;15.34;100.00;101561.97;6100484;23;20078;-53
2022/10/28 07:23:18;;;;;;;17.80;6.78;;;;;;;15.36;100.00;101558.13;6100071;23;20018;-54
2022/10/28 07:25:52;;;;;;;18.98;6.20;;;;;;;15.38;100.00;101555.91;6099668;23;20025;-51
2022/10/28 07:28:25;;;;;;;22.25;6.38;;;;;;;15.39;100.00;101560.28;6073932;23;20440;-50
2022/10/28 07:30:53;;;;;;;23.80;6.70;;;;;;;15.39;100.00;101557.53;6097494;23;20320;-50
2022/10/28 07:33:21;;;;;;;18.95;6.38;;;;;;;15.40;100.00;101559.22;6099502;23;20018;-47
2022/10/28 07:35:48;;;;;;;18.52;6.40;;;;;;;15.41;100.00;101560.84;6097497;23;20018;-49
2022/10/28 07:38:16;;;;;;;26.63;6.78;;;;;;;15.42;100.00;101568.00;6099877;23;20030;-48
2022/10/28 07:40:43;;;;;;;22.25;6.43;;;;;;;15.42;100.00;101576.22;6099929;23;20022;-49
2022/10/28 07:43:11;;;;;;;20.83;7.00;;;;;;;15.43;100.00;101569.63;6101667;23;20025;-49
2022/10/28 07:45:39;;;;;;;24.92;7.45;;;;;;;15.45;100.00;101573.72;6102034;23;20376;-49
2022/10/28 07:48:06;;;;;;;17.45;6.45;;;;;;;15.45;100.00;101567.41;6099157;23;20033;-46
2022/10/28 07:50:34;;;;;;;26.70;7.40;;;;;;;15.48;100.00;101572.34;6097912;23;20387;-50
2022/10/28 07:53:02;;;;;;;22.75;6.78;;;;;;;15.49;100.00;101569.31;6096753;23;20047;-46
2022/10/28 07:55:29;;;;;;;20.98;7.43;;;;;;;15.50;100.00;101568.19;6096312;23;20018;-48
2022/10/28 07:57:58;;;;;;;22.30;7.28;;;;;;;15.54;100.00;101560.22;6096987;23;20462;-52
2022/10/28 08:00:25;;;;;;;23.48;7.40;;;;;;;15.56;100.00;101568.97;6097493;23;20070;-53
2022/10/28 08:02:53;;;;;;;20.42;6.90;;;;;;;15.59;100.00;101568.44;6096370;23;20066;-51
2022/10/28 08:05:20;;;;;;;23.08;7.53;;;;;;;15.62;100.00;101556.88;6097049;23;20026;-54
2022/10/28 08:07:48;;;;;;;19.77;7.93;;;;;;;15.65;100.00;101555.47;6094628;23;20391;-51
2022/10/28 08:10:15;;;;;;;23.60;7.70;;;;;;;15.66;100.00;101549.72;6096979;23;20062;-50
2022/10/28 08:12:45;;;;;;;19.40;7.32;;;;;;;15.70;100.00;101556.28;6097669;23;20036;-50
2022/10/28 08:15:14;;;;;;;24.17;7.25;;;;;;;15.73;100.00;101553.00;6097341;23;20026;-50
2022/10/28 08:17:42;;;;;;;19.13;7.00;;;;;;;15.76;100.00;101563.41;6096255;23;20034;-50
2022/10/28 08:20:09;;;;;;;20.90;7.22;;;;;;;15.80;100.00;101560.09;6097142;23;20452;-54
2022/10/28 08:22:37;;;;;;;23.05;7.03;;;;;;;15.82;100.00;101555.94;6095794;23;20081;-50
2022/10/28 08:25:05;;;;;;;26.95;7.93;;;;;;;15.87;100.00;101557.84;6071081;23;20029;-49
2022/10/28 08:27:32;;;;;;;23.80;9.15;;;;;;;15.94;100.00;101558.34;6096168;23;20077;-51
2022/10/28 08:30:00;;;;;;;18.35;7.03;;;;;;;15.98;100.00;101567.66;6097250;23;20018;-52
2022/10/28 08:32:27;;;;;;;24.40;7.45;;;;;;;16.01;100.00;101580.81;6095339;23;20069;-50
2022/10/28 08:34:55;;;;;;;20.38;7.45;;;;;;;16.04;100.00;101584.94;6097062;23;20018;-54
2022/10/28 08:37:22;;;;;;;23.67;9.48;;;;;;;16.09;100.00;101587.63;6097096;23;20026;-52
2022/10/28 08:39:50;;;;;;;20.95;8.60;;;;;;;16.12;100.00;101587.91;6096568;23;20018;-50
2022/10/28 08:42:38;;;;;;;19.45;7.03;;;;;;;16.14;100.00;101585.69;6097949;23;20066;-50
2022/10/28 08:45:32;;;;;;;21.35;7.90;;;;;;;16.19;100.00;101571.88;6098038;23;20026;-51
2022/10/28 08:48:18;;;;;;;21.30;7.05;;;;;;;16.25;100.00;101575.41;6096449;23;20018;-50
2022/10/28 08:51:11;;;;;;;19.55;7.57;;;;;;;16.29;100.00;101575.66;6096674;23;20356;-51
2022/10/28 08:53:44;;;;;;;23.70;8.55;;;;;;;16.32;100.00;101577.84;6096938;23;20022;-51
2022/10/28 08:56:34;;;;;;;18.83;7.13;;;;;;;16.34;100.00;101567.38;6095496;23;20090;-50
2022/10/28 08:59:04;;;;;;;22.42;8.30;;;;;;;16.37;100.00;101564.03;6095172;23;20384;-53
2022/10/28 09:01:38;;;;;;;22.45;7.57;;;;;;;16.37;100.00;101562.09;6096311;23;20106;-50
2022/10/28 09:04:21;;;;;;;19.90;6.95;;;;;;;16.38;100.00;101562.94;6097056;23;20444;-53
2022/10/28 09:06:49;;;;;;;19.63;8.02;;;;;;;16.43;100.00;101564.81;6096382;23;20022;-49
2022/10/28 09:09:21;;;;;;;33.47;9.82;;;;;;;16.48;100.00;101568.34;6096661;23;20087;-52
2022/10/28 09:12:01;;;;;;;26.35;9.27;;;;;;;16.51;100.00;101562.25;6094894;23;20029;-50
2022/10/28 09:14:57;;;;;;;28.30;10.15;;;;;;;16.55;100.00;101571.56;6097216;23;20023;-50
2022/10/28 09:17:36;;;;;;;32.60;9.32;;;;;;;16.60;100.00;101576.22;6095636;23;20037;-50
2022/10/28 09:20:17;;;;;;;27.15;8.23;;;;;;;16.61;100.00;101575.09;6096620;23;20022;-48
2022/10/28 09:22:56;;;;;;;29.27;10.55;;;;;;;16.64;100.00;101574.50;6095262;23;20029;-49
2022/10/28 09:25:29;;;;;;;30.60;10.02;;;;;;;16.69;100.00;101579.13;6095103;23;20313;-51
2022/10/28 09:28:34;;;;;;;33.55;11.50;;;;;;;16.71;100.00;101576.91;6096781;23;20022;-51
2022/10/28 09:31:36;;;;;;;25.80;8.80;;;;;;;16.73;100.00;101583.78;6094799;23;20027;-50
2022/10/28 09:34:10;;;;;;;23.50;9.00;;;;;;;16.77;100.00;101586.78;6070294;23;20069;-50
2022/10/28 09:36:42;;;;;;;32.65;7.53;;;;;;;16.80;100.00;101580.72;6095829;23;20090;-51
2022/10/28 09:39:34;;;;;;;26.00;9.38;;;;;;;16.87;100.00;101585.88;6095345;23;20018;-49
2022/10/28 09:42:03;;;;;;;33.80;10.15;;;;;;;16.93;100.00;101582.78;6095000;23;20018;-50
2022/10/28 09:44:47;;;;;;;24.40;8.70;;;;;;;16.95;100.00;101587.97;6096460;23;20400;-52
2022/10/28 09:47:18;;;;;;;22.75;8.80;;;;;;;16.97;100.00;101591.25;6096688;23;20014;-53
2022/10/28 09:49:47;;;;;;;27.50;9.88;;;;;;;16.99;100.00;101591.78;6071570;23;20074;-51
2022/10/28 09:52:59;;;;;;;27.30;9.60;;;;;;;16.99;100.00;101581.59;6070959;23;20019;-49
2022/10/28 09:55:27;;;;;;;25.13;8.95;;;;;;;17.04;100.00;101587.03;6096378;23;20026;-52
2022/10/28 09:57:55;;;;;;;21.40;7.40;;;;;;;17.06;100.00;101572.19;6096555;23;20514;-51
2022/10/28 10:00:23;;;;;;;18.52;6.68;;;;;;;17.08;100.00;101576.28;6071149;23;20094;-51
2022/10/28 10:02:56;;;;;;;18.40;6.78;;;;;;;17.13;100.00;101578.97;6095111;23;20019;-52
2022/10/28 10:05:25;;;;;;;20.83;7.22;;;;;;;17.21;100.00;101591.25;6094706;23;20030;-51
2022/10/28 10:07:59;;;;;;;27.40;6.97;;;;;;;17.24;100.00;101587.91;6095315;23;20019;-50
2022/10/28 10:10:46;;;;;;;27.48;7.35;;;;;;;17.31;100.00;101584.81;6095212;23;20081;-51
2022/10/28 10:13:17;;;;;;;24.05;9.15;;;;;;;17.39;100.00;101593.25;6096091;23;20026;-52
2022/10/28 10:16:06;;;;;;;22.30;9.23;;;;;;;17.46;100.00;101592.84;6096437;23;20022;-50
2022/10/28 10:18:34;;;;;;;20.40;7.32;;;;;;;17.55;100.00;101579.25;6098267;23;20022;-51
2022/10/28 10:21:02;;;;;;;25.35;7.60;;;;;;;17.57;100.00;101596.31;6094887;23;20026;-54
2022/10/28 10:23:37;;;;;;;25.08;8.13;;;;;;;17.56;100.00;101584.47;6097538;23;20404;-49
2022/10/28 10:26:12;;;;;;;21.10;8.60;;;;;;;17.59;100.00;101577.56;6096726;23;20053;-54
2022/10/28 10:28:47;;;;;;;24.00;7.32;;;;;;;17.62;100.00;101579.72;6098308;23;20398;-48
2022/10/28 10:31:31;;;;;;;21.60;6.93;;;;;;;17.64;100.00;101586.56;6096360;23;20022;-53
2022/10/28 10:33:59;;;;;;;26.55;7.13;;;;;;;17.67;100.00;101576.88;6096956;23;20026;-53
2022/10/28 10:36:27;;;;;;;21.52;6.78;;;;;;;17.72;100.00;101568.53;6098795;23;20078;-50
2022/10/28 10:38:57;;;;;;;21.20;6.78;;;;;;;17.78;100.00;101583.88;6098422;23;20065;-51
2022/10/28 10:41:35;;;;;;;28.35;6.90;;;;;;;17.83;100.00;101575.56;6095941;23;20354;-52
2022/10/28 10:44:21;;;;;;;22.17;6.57;;;;;;;17.88;100.00;101571.91;6098125;23;20023;-50
2022/10/28 10:46:55;;;;;;;21.10;6.50;;;;;;;17.92;100.00;101569.38;6098221;23;20018;-52
2022/10/28 10:49:22;;;;;;;22.58;5.93;;;;;;;17.98;100.00;101571.75;6098234;23;20018;-50
2022/10/28 10:51:52;;;;;;;27.95;6.78;;;;;;;17.99;100.00;101567.91;6095873;23;20029;-51
2022/10/28 10:54:20;;;;;;;19.48;6.28;;;;;;;18.00;100.00;101552.97;6098195;23;20078;-50
2022/10/28 10:56:48;;;;;;;20.55;6.00;;;;;;;18.04;100.00;101559.53;6097874;23;20022;-49
2022/10/28 10:59:25;;;;;;;27.60;6.43;;;;;;;18.08;100.00;101557.78;6097006;23;20018;-53
2022/10/28 11:01:54;;;;;;;20.60;7.68;;;;;;;18.10;100.00;101546.47;6072958;23;20046;-53
2022/10/28 11:04:23;;;;;;;54.40;24.20;;;;;;;18.10;100.00;101536.25;6096653;23;20010;-52
2022/10/28 11:06:53;;;;;;;71.00;30.27;;;;;;;18.13;100.00;101540.34;6097857;23;20029;-49
2022/10/28 11:09:35;;;;;;;100.43;43.85;;;;;;;18.14;100.00;101530.97;6096575;23;20022;-53
2022/10/28 11:12:30;;;;;;;73.07;32.63;;;;;;;18.19;100.00;101543.84;6096121;23;20022;-50
2022/10/28 11:15:00;;;;;;;88.80;40.33;;;;;;;18.21;100.00;101553.47;6097604;23;20070;-50
2022/10/28 11:17:31;;;;;;;59.22;28.25;;;;;;;18.24;100.00;101565.84;6097357;23;20078;-51
2022/10/28 11:20:33;;;;;;;87.57;40.30;;;;;;;18.32;100.00;101551.34;6096605;23;20046;-49
2022/10/28 11:23:10;;;;;;;21.63;6.25;;;;;;;18.42;99.51;101542.88;6019517;23;20020;-53
2022/10/28 11:25:43;;;;;;;18.23;5.05;;;;;;;18.49;98.02;101545.25;6097847;23;20026;-49
2022/10/28 11:28:29;;;;;;;21.52;6.30;;;;;;;18.53;97.73;101541.56;6095906;23;20093;-50
2022/10/28 11:31:50;;;;;;;20.05;5.53;;;;;;;18.56;96.60;101533.81;6048490;23;20026;-50
2022/10/28 11:34:30;;;;;;;67.93;29.92;;;;;;;18.52;96.02;101525.34;6009557;23;20345;-51